createdAt,value
2023-01-29T00:00:24.392Z,-2.729
2023-01-29T00:01:24.158Z,-2.715
2023-01-29T00:02:24.044Z,-2.729
2023-01-29T00:03:24.114Z,-2.691
2023-01-29T00:04:24.448Z,-2.649
2023-01-29T00:05:29.140Z,-2.697
2023-01-29T00:06:24.422Z,-2.753
2023-01-29T00:07:24.344Z,-2.670
2023-01-29T00:08:24.195Z,-2.654
2023-01-29T00:09:23.886Z,-2.729
2023-01-29T00:10:24.633Z,-2.750
2023-01-29T00:11:24.370Z,-2.670
2023-01-29T00:12:24.269Z,-2.630
2023-01-29T00:13:24.119Z,-2.667
2023-01-29T00:14:23.884Z,-2.643
2023-01-29T00:15:24.707Z,-2.657
2023-01-29T00:16:24.484Z,-2.662
2023-01-29T00:17:24.410Z,-2.699
2023-01-29T00:18:24.215Z,-2.702
2023-01-29T00:19:23.958Z,-2.662
2023-01-29T00:20:23.773Z,-2.659
2023-01-29T00:21:24.415Z,-2.689
2023-01-29T00:22:24.173Z,-2.702
2023-01-29T00:23:23.934Z,-2.697
2023-01-29T00:24:23.797Z,-2.665
2023-01-29T00:25:24.487Z,-2.681
2023-01-29T00:26:24.401Z,-2.657
2023-01-29T00:27:24.303Z,-2.649
2023-01-29T00:28:24.065Z,-2.654
2023-01-29T00:29:23.896Z,-2.670
2023-01-29T00:30:24.566Z,-2.649
2023-01-29T00:31:24.490Z,-2.739
2023-01-29T00:32:23.948Z,-2.747
2023-01-29T00:33:23.861Z,-2.721
2023-01-29T00:34:24.635Z,-2.718
2023-01-29T00:35:25.982Z,-2.763
2023-01-29T00:36:23.694Z,-2.742
2023-01-29T00:37:24.326Z,-2.795
2023-01-29T00:38:28.043Z,-2.755
2023-01-29T00:39:29.342Z,-2.785
2023-01-29T00:41:24.071Z,-2.809
2023-01-29T00:42:23.895Z,-2.817
2023-01-29T00:43:24.698Z,-2.809
2023-01-29T00:44:24.420Z,-2.830
2023-01-29T00:45:24.145Z,-2.846
2023-01-29T00:46:23.826Z,-2.868
2023-01-29T00:47:24.535Z,-2.913
2023-01-29T00:48:24.278Z,-2.894
2023-01-29T00:49:23.952Z,-2.921
2023-01-29T00:50:23.879Z,-2.884
2023-01-29T00:51:24.539Z,-2.819
2023-01-29T00:52:24.479Z,-2.852
2023-01-29T00:53:24.272Z,-2.833
2023-01-29T00:54:23.940Z,-2.854
2023-01-29T00:55:24.608Z,-2.921
2023-01-29T00:56:24.300Z,-2.929
2023-01-29T00:57:23.971Z,-2.934
2023-01-29T00:58:24.680Z,-2.977
2023-01-29T00:59:24.349Z,-3.001
2023-01-29T01:00:24.125Z,-3.052
2023-01-29T01:01:24.213Z,-3.033
2023-01-29T01:02:23.970Z,-2.929
2023-01-29T01:03:23.740Z,-3.006
2023-01-29T01:04:24.446Z,-2.948
2023-01-29T01:05:24.097Z,-2.932
2023-01-29T01:06:23.779Z,-3.017
2023-01-29T01:07:24.625Z,-3.121
2023-01-29T01:08:24.351Z,-3.065
2023-01-29T01:09:24.120Z,-2.996
2023-01-29T01:10:23.839Z,-3.044
2023-01-29T01:11:24.506Z,-3.033
2023-01-29T01:12:24.169Z,-3.022
2023-01-29T01:13:23.889Z,-3.030
2023-01-29T01:14:24.622Z,-3.030
2023-01-29T01:15:24.501Z,-3.006
2023-01-29T01:16:24.346Z,-3.068
2023-01-29T01:17:24.130Z,-3.036
2023-01-29T01:18:23.923Z,-3.036
2023-01-29T01:19:23.691Z,-3.049
2023-01-29T01:20:24.424Z,-3.052
2023-01-29T01:21:24.131Z,-3.087
2023-01-29T01:22:23.795Z,-3.132
2023-01-29T01:23:24.539Z,-3.140
2023-01-29T01:24:24.311Z,-3.119
2023-01-29T01:25:24.108Z,-3.070
2023-01-29T01:26:23.929Z,-3.097
2023-01-29T01:27:24.565Z,-3.095
2023-01-29T01:28:24.340Z,-3.054
2023-01-29T01:29:24.076Z,-3.049
2023-01-29T01:30:23.868Z,-3.054
2023-01-29T01:31:24.012Z,-3.070
2023-01-29T01:32:23.954Z,-3.108
2023-01-29T01:33:23.619Z,-3.164
2023-01-29T01:34:24.407Z,-3.062
2023-01-29T01:35:24.158Z,-2.974
2023-01-29T01:36:23.894Z,-2.982
2023-01-29T01:37:24.486Z,-3.004
2023-01-29T01:38:24.198Z,-3.020
2023-01-29T01:39:23.822Z,-3.038
2023-01-29T01:40:24.530Z,-3.004
2023-01-29T01:41:24.223Z,-3.022
2023-01-29T01:42:23.959Z,-3.057
2023-01-29T01:43:24.622Z,-3.087
2023-01-29T01:44:24.307Z,-3.070
2023-01-29T01:45:23.910Z,-3.017
2023-01-29T01:46:23.884Z,-3.033
2023-01-29T01:47:24.507Z,-2.977
2023-01-29T01:48:24.231Z,-2.958
2023-01-29T01:49:24.024Z,-2.969
2023-01-29T01:50:23.803Z,-2.990
2023-01-29T01:51:24.539Z,-3.033
2023-01-29T01:52:24.235Z,-3.028
2023-01-29T01:53:24.155Z,-3.030
2023-01-29T01:54:23.831Z,-2.966
2023-01-29T01:55:24.495Z,-2.985
2023-01-29T01:56:24.408Z,-2.966
2023-01-29T01:57:24.104Z,-2.998
2023-01-29T01:58:23.836Z,-3.004
2023-01-29T01:59:24.645Z,-3.001
2023-01-29T02:00:24.331Z,-2.966
2023-01-29T02:01:25.785Z,-2.937
2023-01-29T02:02:24.825Z,-2.929
2023-01-29T02:03:24.523Z,-2.985
2023-01-29T02:04:24.272Z,-2.996
2023-01-29T02:05:24.124Z,-2.974
2023-01-29T02:06:23.787Z,-2.932
2023-01-29T02:07:24.462Z,-2.913
2023-01-29T02:08:24.071Z,-2.985
2023-01-29T02:09:23.942Z,-2.958
2023-01-29T02:10:24.702Z,-2.921
2023-01-29T02:11:24.357Z,-2.873
2023-01-29T02:12:24.183Z,-2.996
2023-01-29T02:13:23.927Z,-2.993
2023-01-29T02:14:23.780Z,-2.961
2023-01-29T02:15:23.758Z,-2.921
2023-01-29T02:16:24.561Z,-2.892
2023-01-29T02:17:24.365Z,-2.929
2023-01-29T02:18:24.131Z,-2.902
2023-01-29T02:19:24.079Z,-2.996
2023-01-29T02:20:23.945Z,-3.020
2023-01-29T02:21:23.816Z,-2.996
2023-01-29T02:22:24.818Z,-3.052
2023-01-29T02:23:24.544Z,-3.012
2023-01-29T02:24:24.543Z,-3.054
2023-01-29T02:25:23.839Z,-2.996
2023-01-29T02:26:24.617Z,-3.038
2023-01-29T02:27:24.395Z,-3.068
2023-01-29T02:28:24.105Z,-3.044
2023-01-29T02:29:23.798Z,-3.044
2023-01-29T02:30:24.555Z,-3.070
2023-01-29T02:31:24.436Z,-3.060
2023-01-29T02:32:24.299Z,-3.092
2023-01-29T02:33:24.217Z,-3.121
2023-01-29T02:34:23.888Z,-3.057
2023-01-29T02:35:24.580Z,-3.049
2023-01-29T02:36:23.926Z,-3.062
2023-01-29T02:37:24.707Z,-3.111
2023-01-29T02:38:24.331Z,-3.143
2023-01-29T02:39:23.919Z,-3.108
2023-01-29T02:40:24.777Z,-3.079
2023-01-29T02:41:24.571Z,-3.193
2023-01-29T02:42:24.267Z,-3.132
2023-01-29T02:43:24.668Z,-3.129
2023-01-29T02:44:24.372Z,-3.113
2023-01-29T02:45:24.104Z,-3.087
2023-01-29T02:46:24.375Z,-3.113
2023-01-29T02:47:23.947Z,-3.111
2023-01-29T02:48:24.042Z,-3.060
2023-01-29T02:49:23.748Z,-3.028
2023-01-29T02:50:24.591Z,-2.985
2023-01-29T02:51:24.268Z,-3.022
2023-01-29T02:52:24.051Z,-3.049
2023-01-29T02:53:23.675Z,-3.105
2023-01-29T02:54:24.308Z,-3.062
2023-01-29T02:55:24.251Z,-3.070
2023-01-29T02:56:23.939Z,-3.095
2023-01-29T02:57:24.555Z,-3.073
2023-01-29T02:58:24.448Z,-3.137
2023-01-29T02:59:24.159Z,-3.156
2023-01-29T03:00:23.807Z,-3.137
2023-01-29T03:01:24.203Z,-3.087
2023-01-29T03:02:23.960Z,-3.020
2023-01-29T03:03:23.879Z,-3.060
2023-01-29T03:04:23.986Z,-3.172
2023-01-29T03:05:23.831Z,-3.087
2023-01-29T03:06:24.603Z,-3.092
2023-01-29T03:07:24.395Z,-3.164
2023-01-29T03:08:24.027Z,-3.156
2023-01-29T03:09:23.751Z,-3.087
2023-01-29T03:10:24.718Z,-3.076
2023-01-29T03:11:24.439Z,-3.060
2023-01-29T03:12:24.131Z,-3.049
2023-01-29T03:13:23.929Z,-3.046
2023-01-29T03:14:23.963Z,-3.084
2023-01-29T03:15:23.806Z,-3.044
2023-01-29T03:16:24.380Z,-2.961
2023-01-29T03:17:24.303Z,-2.977
2023-01-29T03:18:24.284Z,-2.982
2023-01-29T03:19:24.123Z,-3.033
2023-01-29T03:20:23.943Z,-2.998
2023-01-29T03:21:24.002Z,-3.070
2023-01-29T03:22:23.843Z,-3.068
2023-01-29T03:23:24.579Z,-3.119
2023-01-29T03:24:23.787Z,-3.204
2023-01-29T03:25:24.632Z,-3.156
2023-01-29T03:26:24.419Z,-3.097
2023-01-29T03:27:24.199Z,-3.116
2023-01-29T03:28:23.969Z,-3.049
2023-01-29T03:29:23.879Z,-2.969
2023-01-29T03:30:24.536Z,-2.990
2023-01-29T03:31:24.328Z,-3.012
2023-01-29T03:32:24.622Z,-3.060
2023-01-29T03:33:24.325Z,-3.095
2023-01-29T03:34:24.252Z,-3.084
2023-01-29T03:35:24.100Z,-3.113
2023-01-29T03:36:23.863Z,-3.105
2023-01-29T03:37:24.708Z,-3.073
2023-01-29T03:38:24.376Z,-3.121
2023-01-29T03:39:24.262Z,-3.033
2023-01-29T03:40:24.019Z,-3.105
2023-01-29T03:41:23.792Z,-3.049
2023-01-29T03:42:24.507Z,-3.004
2023-01-29T03:43:24.297Z,-3.038
2023-01-29T03:44:23.963Z,-3.006
2023-01-29T03:45:24.706Z,-3.006
2023-01-29T03:46:24.512Z,-2.985
2023-01-29T03:47:24.151Z,-3.020
2023-01-29T03:48:23.979Z,-3.022
2023-01-29T03:49:24.664Z,-3.028
2023-01-29T03:50:24.451Z,-3.070
2023-01-29T03:51:24.140Z,-2.996
2023-01-29T03:52:23.810Z,-2.990
2023-01-29T03:53:24.412Z,-2.988
2023-01-29T03:55:24.011Z,-3.033
2023-01-29T03:56:23.832Z,-3.068
2023-01-29T03:57:24.615Z,-3.020
2023-01-29T03:58:24.248Z,-2.993
2023-01-29T03:59:23.871Z,-3.012
2023-01-29T04:00:24.691Z,-2.998
2023-01-29T04:01:24.598Z,-2.990
2023-01-29T04:02:24.490Z,-2.998
2023-01-29T04:03:24.203Z,-2.926
2023-01-29T04:04:24.097Z,-2.980
2023-01-29T04:05:23.984Z,-2.937
2023-01-29T04:06:23.711Z,-2.964
2023-01-29T04:07:24.397Z,-3.004
2023-01-29T04:08:24.022Z,-3.017
2023-01-29T04:09:23.755Z,-3.022
2023-01-29T04:10:24.539Z,-2.996
2023-01-29T04:11:24.142Z,-3.054
2023-01-29T04:12:23.803Z,-3.022
2023-01-29T04:13:24.404Z,-2.998
2023-01-29T04:14:24.202Z,-3.020
2023-01-29T04:15:23.918Z,-3.049
2023-01-29T04:16:24.641Z,-3.004
2023-01-29T04:17:24.558Z,-2.982
2023-01-29T04:18:24.170Z,-3.030
2023-01-29T04:19:23.907Z,-3.044
2023-01-29T04:20:24.607Z,-3.116
2023-01-29T04:21:24.306Z,-3.108
2023-01-29T04:22:24.014Z,-3.068
2023-01-29T04:23:24.000Z,-3.076
2023-01-29T04:24:24.679Z,-3.022
2023-01-29T04:25:24.458Z,-3.012
2023-01-29T04:26:24.126Z,-3.044
2023-01-29T04:27:23.803Z,-2.988
2023-01-29T04:28:24.554Z,-2.953
2023-01-29T04:29:24.192Z,-2.921
2023-01-29T04:30:23.875Z,-2.953
2023-01-29T04:31:23.886Z,-2.948
2023-01-29T04:32:23.741Z,-2.990
2023-01-29T04:33:24.397Z,-2.977
2023-01-29T04:34:24.315Z,-3.004
2023-01-29T04:35:24.065Z,-2.953
2023-01-29T04:36:23.784Z,-3.030
2023-01-29T04:37:24.429Z,-3.020
2023-01-29T04:38:24.231Z,-3.020
2023-01-29T04:39:23.958Z,-3.033
2023-01-29T04:40:23.748Z,-3.030
2023-01-29T04:41:24.555Z,-3.049
2023-01-29T04:42:24.168Z,-3.062
2023-01-29T04:43:23.777Z,-3.092
2023-01-29T04:44:24.431Z,-3.124
2023-01-29T04:45:24.083Z,-3.087
2023-01-29T04:46:23.806Z,-3.108
2023-01-29T04:47:24.647Z,-3.105
2023-01-29T04:48:23.680Z,-3.044
2023-01-29T04:49:24.327Z,-3.108
2023-01-29T04:50:23.964Z,-3.087
2023-01-29T04:51:23.821Z,-3.070
2023-01-29T04:52:24.501Z,-3.065
2023-01-29T04:53:24.155Z,-3.046
2023-01-29T04:54:23.963Z,-3.030
2023-01-29T04:55:23.839Z,-3.028
2023-01-29T04:56:24.701Z,-3.020
2023-01-29T04:57:24.411Z,-3.025
2023-01-29T04:58:24.004Z,-3.004
2023-01-29T04:59:24.696Z,-3.006
2023-01-29T05:00:24.692Z,-3.020
2023-01-29T05:01:24.722Z,-3.012
2023-01-29T05:02:23.762Z,-3.020
2023-01-29T05:03:24.705Z,-2.958
2023-01-29T05:04:24.388Z,-2.889
2023-01-29T05:05:24.134Z,-2.958
2023-01-29T05:06:23.826Z,-2.985
2023-01-29T05:07:24.625Z,-2.929
2023-01-29T05:08:24.582Z,-2.985
2023-01-29T05:09:24.275Z,-3.006
2023-01-29T05:10:23.946Z,-3.060
2023-01-29T05:11:24.618Z,-3.097
2023-01-29T05:12:24.407Z,-3.060
2023-01-29T05:13:24.096Z,-3.068
2023-01-29T05:14:23.695Z,-3.052
2023-01-29T05:15:24.437Z,-3.006
2023-01-29T05:16:24.411Z,-2.993
2023-01-29T05:17:24.230Z,-3.009
2023-01-29T05:19:24.681Z,-3.006
2023-01-29T05:20:24.396Z,-3.036
2023-01-29T05:21:24.167Z,-3.065
2023-01-29T05:22:23.819Z,-3.004
2023-01-29T05:23:24.456Z,-3.006
2023-01-29T05:24:24.196Z,-3.017
2023-01-29T05:25:25.075Z,-2.953
2023-01-29T05:26:23.919Z,-3.108
2023-01-29T05:27:24.676Z,-3.095
2023-01-29T05:28:24.364Z,-3.038
2023-01-29T05:29:24.003Z,-3.097
2023-01-29T05:30:23.867Z,-3.033
2023-01-29T05:31:24.785Z,-2.884
2023-01-29T05:32:23.890Z,-2.948
2023-01-29T05:33:24.618Z,-2.934
2023-01-29T05:34:24.223Z,-2.956
2023-01-29T05:35:23.927Z,-2.964
2023-01-29T05:36:24.676Z,-2.972
2023-01-29T05:37:24.382Z,-2.993
2023-01-29T05:38:24.052Z,-2.950
2023-01-29T05:39:23.715Z,-2.926
2023-01-29T05:40:24.482Z,-2.945
2023-01-29T05:41:24.183Z,-2.985
2023-01-29T05:42:23.848Z,-2.993
2023-01-29T05:43:24.549Z,-3.044
2023-01-29T05:44:24.139Z,-3.097
2023-01-29T05:45:23.899Z,-3.060
2023-01-29T05:46:24.659Z,-3.017
2023-01-29T05:47:24.483Z,-2.966
2023-01-29T05:48:24.183Z,-3.006
2023-01-29T05:49:23.855Z,-2.996
2023-01-29T05:50:24.620Z,-2.958
2023-01-29T05:51:24.300Z,-2.916
2023-01-29T05:52:23.973Z,-2.905
2023-01-29T05:53:23.852Z,-2.929
2023-01-29T05:54:24.586Z,-2.934
2023-01-29T05:55:24.549Z,-2.958
2023-01-29T05:56:24.299Z,-3.084
2023-01-29T05:57:24.245Z,-2.998
2023-01-29T05:58:24.130Z,-3.052
2023-01-29T05:59:23.888Z,-3.006
2023-01-29T06:00:24.692Z,-3.009
2023-01-29T06:01:24.421Z,-3.006
2023-01-29T06:02:24.263Z,-2.977
2023-01-29T06:03:24.036Z,-2.990
2023-01-29T06:04:23.883Z,-2.932
2023-01-29T06:05:24.570Z,-2.974
2023-01-29T06:06:24.368Z,-3.022
2023-01-29T06:07:24.355Z,-3.004
2023-01-29T06:08:24.419Z,-2.958
2023-01-29T06:09:24.047Z,-3.028
2023-01-29T06:10:23.691Z,-2.985
2023-01-29T06:11:24.359Z,-3.033
2023-01-29T06:12:23.947Z,-2.937
2023-01-29T06:13:24.559Z,-2.972
2023-01-29T06:14:24.218Z,-2.972
2023-01-29T06:15:23.958Z,-3.044
2023-01-29T06:16:24.798Z,-3.009
2023-01-29T06:17:24.495Z,-2.966
2023-01-29T06:18:24.175Z,-2.956
2023-01-29T06:19:23.961Z,-2.990
2023-01-29T06:20:23.695Z,-3.057
2023-01-29T06:21:24.339Z,-3.054
2023-01-29T06:22:23.987Z,-3.095
2023-01-29T06:23:24.628Z,-3.097
2023-01-29T06:24:24.351Z,-3.135
2023-01-29T06:25:24.148Z,-3.017
2023-01-29T06:26:23.819Z,-3.012
2023-01-29T06:27:24.589Z,-3.030
2023-01-29T06:28:24.216Z,-3.017
2023-01-29T06:29:23.951Z,-3.017
2023-01-29T06:30:24.662Z,-2.916
2023-01-29T06:31:38.145Z,-2.878
2023-01-29T06:33:27.652Z,-2.809
2023-01-29T06:34:28.342Z,-2.801
2023-01-29T06:35:28.503Z,-2.913
2023-01-29T06:36:28.243Z,-2.926
2023-01-29T06:37:28.049Z,-2.924
2023-01-29T06:38:27.719Z,-2.892
2023-01-29T06:39:28.431Z,-2.876
2023-01-29T06:40:28.164Z,-2.857
2023-01-29T06:41:27.863Z,-2.892
2023-01-29T06:42:28.609Z,-2.884
2023-01-29T06:43:27.706Z,-2.854
2023-01-29T06:44:28.326Z,-2.819
2023-01-29T06:45:28.109Z,-2.862
2023-01-29T06:46:27.930Z,-2.900
2023-01-29T06:47:28.627Z,-2.819
2023-01-29T06:48:28.333Z,-2.806
2023-01-29T06:49:28.028Z,-2.857
2023-01-29T06:50:27.740Z,-2.803
2023-01-29T06:51:28.480Z,-2.830
2023-01-29T06:52:28.247Z,-2.803
2023-01-29T06:53:27.919Z,-2.809
2023-01-29T06:54:27.755Z,-2.827
2023-01-29T06:55:28.470Z,-2.865
2023-01-29T06:56:28.112Z,-2.841
2023-01-29T06:57:27.803Z,-2.806
2023-01-29T06:58:28.592Z,-2.806
2023-01-29T06:59:28.252Z,-2.785
2023-01-29T07:00:28.676Z,-2.836
2023-01-29T07:01:35.919Z,-2.881
2023-01-29T07:02:28.289Z,-2.873
2023-01-29T07:03:27.970Z,-2.838
2023-01-29T07:04:28.559Z,-2.868
2023-01-29T07:05:28.226Z,-2.878
2023-01-29T07:06:27.956Z,-2.819
2023-01-29T07:07:28.652Z,-2.846
2023-01-29T07:08:28.358Z,-2.865
2023-01-29T07:09:28.063Z,-2.878
2023-01-29T07:10:28.655Z,-2.857
2023-01-29T07:11:28.384Z,-2.841
2023-01-29T07:12:28.090Z,-2.782
2023-01-29T07:13:27.716Z,-2.745
2023-01-29T07:14:28.399Z,-2.742
2023-01-29T07:15:28.067Z,-2.758
2023-01-29T07:16:28.017Z,-2.713
2023-01-29T07:17:27.821Z,-2.849
2023-01-29T07:18:28.467Z,-2.689
2023-01-29T07:19:28.257Z,-2.801
2023-01-29T07:20:27.934Z,-2.819
2023-01-29T07:21:27.668Z,-2.753
2023-01-29T07:22:28.371Z,-2.697
2023-01-29T07:23:28.129Z,-2.657
2023-01-29T07:24:27.956Z,-2.697
2023-01-29T07:25:27.887Z,-2.670
2023-01-29T07:26:28.529Z,-2.638
2023-01-29T07:27:28.231Z,-2.686
2023-01-29T07:28:27.947Z,-2.625
2023-01-29T07:29:28.614Z,-2.558
2023-01-29T07:30:28.317Z,-2.584
2023-01-29T07:31:28.133Z,-2.568
2023-01-29T07:32:28.274Z,-2.419
2023-01-29T07:33:27.954Z,-2.392
2023-01-29T07:34:28.488Z,-2.475
2023-01-29T07:35:28.102Z,-2.427
2023-01-29T07:36:27.890Z,-2.424
2023-01-29T07:37:28.505Z,-2.411
2023-01-29T07:38:33.175Z,-2.379
2023-01-29T07:39:27.836Z,-2.411
2023-01-29T07:40:28.477Z,-2.430
2023-01-29T07:41:28.210Z,-2.464
2023-01-29T07:42:27.839Z,-2.552
2023-01-29T07:43:28.592Z,-2.491
2023-01-29T07:44:28.327Z,-2.558
2023-01-29T07:45:28.167Z,-2.472
2023-01-29T07:46:28.272Z,-2.526
2023-01-29T07:47:27.899Z,-2.536
2023-01-29T07:48:28.564Z,-2.544
2023-01-29T07:49:28.247Z,-2.483
2023-01-29T07:50:27.956Z,-2.478
2023-01-29T07:51:27.683Z,-2.478
2023-01-29T07:52:28.420Z,-2.515
2023-01-29T07:53:29.514Z,-2.483
2023-01-29T07:54:28.314Z,-2.464
2023-01-29T07:55:28.055Z,-2.491
2023-01-29T07:56:27.724Z,-2.542
2023-01-29T07:57:28.382Z,-2.496
2023-01-29T07:58:28.138Z,-2.528
2023-01-29T07:59:27.874Z,-2.464
2023-01-29T08:00:28.686Z,-2.403
2023-01-29T08:01:28.548Z,-2.464
2023-01-29T08:02:28.356Z,-2.451
2023-01-29T08:03:28.178Z,-2.427
2023-01-29T08:04:28.780Z,-2.467
2023-01-29T08:05:28.434Z,-2.483
2023-01-29T08:06:28.078Z,-2.430
2023-01-29T08:07:27.718Z,-2.344
2023-01-29T08:09:30.728Z,-2.299
2023-01-29T08:10:29.691Z,-2.285
2023-01-29T08:11:30.343Z,-2.382
2023-01-29T08:12:30.091Z,-2.430
2023-01-29T08:13:29.953Z,-2.451
2023-01-29T08:14:30.686Z,-2.382
2023-01-29T08:15:30.395Z,-2.336
2023-01-29T08:16:30.086Z,-2.277
2023-01-29T08:17:29.980Z,-2.339
2023-01-29T08:19:30.175Z,-2.299
2023-01-29T08:20:29.999Z,-2.261
2023-01-29T08:21:30.763Z,-2.267
2023-01-29T08:22:30.549Z,-2.179
2023-01-29T08:23:30.326Z,-2.192
2023-01-29T08:24:36.007Z,-2.168
2023-01-29T08:26:39.252Z,-2.064
2023-01-29T08:27:38.922Z,-2.061
2023-01-29T08:28:38.808Z,-2.104
2023-01-29T08:29:39.486Z,-2.061
2023-01-29T08:30:39.197Z,-1.970
2023-01-29T08:31:39.234Z,-2.149
2023-01-29T08:32:39.048Z,-2.147
2023-01-29T08:33:39.563Z,-2.029
2023-01-29T08:34:39.319Z,-1.928
2023-01-29T08:35:39.578Z,-2.077
2023-01-29T08:36:39.230Z,-2.008
2023-01-29T08:37:38.858Z,-1.882
2023-01-29T08:38:39.604Z,-1.882
2023-01-29T08:39:39.278Z,-1.869
2023-01-29T08:40:38.996Z,-1.701
2023-01-29T08:41:38.686Z,-1.626
2023-01-29T08:42:39.415Z,-1.717
2023-01-29T08:43:38.757Z,-1.522
2023-01-29T08:44:39.380Z,-1.524
2023-01-29T08:45:39.240Z,-1.575
2023-01-29T08:46:38.948Z,-1.658
2023-01-29T08:47:39.627Z,-1.623
2023-01-29T08:48:39.323Z,-1.757
2023-01-29T08:49:38.932Z,-1.730
2023-01-29T08:50:38.970Z,-1.741
2023-01-29T08:51:39.599Z,-1.802
2023-01-29T08:52:38.777Z,-1.677
2023-01-29T08:53:39.423Z,-1.767
2023-01-29T08:54:39.128Z,-1.912
2023-01-29T08:55:38.815Z,-1.938
2023-01-29T08:56:39.490Z,-1.789
2023-01-29T08:57:39.314Z,-1.685
2023-01-29T08:58:39.115Z,-1.567
2023-01-29T08:59:39.082Z,-1.661
2023-01-29T09:00:38.947Z,-1.583
2023-01-29T09:01:39.678Z,-1.530
2023-01-29T09:02:39.472Z,-1.455
2023-01-29T09:03:39.199Z,-1.500
2023-01-29T09:04:39.039Z,-1.615
2023-01-29T09:05:38.835Z,-1.484
2023-01-29T09:06:39.467Z,-1.508
2023-01-29T09:07:39.078Z,-1.698
2023-01-29T09:08:38.824Z,-1.698
2023-01-29T09:09:39.514Z,-1.682
2023-01-29T09:10:39.218Z,-1.639
2023-01-29T09:11:38.951Z,-1.658
2023-01-29T09:12:39.579Z,-1.810
2023-01-29T09:13:39.208Z,-1.789
2023-01-29T09:14:38.872Z,-1.629
2023-01-29T09:15:39.568Z,-1.559
2023-01-29T09:16:38.902Z,-1.532
2023-01-29T09:17:38.862Z,-1.674
2023-01-29T09:18:39.520Z,-1.626
2023-01-29T09:19:39.294Z,-1.799
2023-01-29T09:20:39.178Z,-1.695
2023-01-29T09:21:38.855Z,-1.749
2023-01-29T09:22:39.613Z,-1.711
2023-01-29T09:23:39.263Z,-1.586
2023-01-29T09:24:38.943Z,-1.567
2023-01-29T09:25:39.613Z,-1.634
2023-01-29T09:26:39.311Z,-1.647
2023-01-29T09:27:39.059Z,-1.415
2023-01-29T09:28:38.877Z,-1.361
2023-01-29T09:29:39.559Z,-1.372
2023-01-29T09:30:39.326Z,-1.196
2023-01-29T09:31:39.362Z,-1.097
2023-01-29T09:32:52.973Z,-0.908
2023-01-29T09:34:42.018Z,-0.721
2023-01-29T09:35:41.713Z,-0.758
2023-01-29T09:36:41.642Z,-0.779
2023-01-29T09:37:42.276Z,-0.646
2023-01-29T09:38:41.954Z,-0.889
2023-01-29T09:39:42.607Z,-1.220
2023-01-29T09:40:42.237Z,-0.966
2023-01-29T09:41:41.915Z,-1.065
2023-01-29T09:42:41.870Z,-0.980
2023-01-29T09:43:42.612Z,-0.857
2023-01-29T09:44:42.267Z,-1.073
2023-01-29T09:45:42.028Z,-1.252
2023-01-29T09:46:41.869Z,-1.121
2023-01-29T09:47:42.600Z,-0.958
2023-01-29T09:48:42.361Z,-0.870
2023-01-29T09:49:42.039Z,-0.827
2023-01-29T09:50:41.702Z,-1.020
2023-01-29T09:51:42.368Z,-0.822
2023-01-29T09:52:42.051Z,-0.777
2023-01-29T09:53:41.784Z,-0.929
2023-01-29T09:54:42.407Z,-0.875
2023-01-29T09:55:42.082Z,-1.175
2023-01-29T09:56:41.755Z,-1.228
2023-01-29T09:57:42.434Z,-1.388
2023-01-29T09:58:42.291Z,-1.209
2023-01-29T09:59:42.102Z,-0.958
2023-01-29T10:00:41.987Z,-1.052
2023-01-29T10:01:41.799Z,-0.750
2023-01-29T10:02:41.859Z,-0.638
2023-01-29T10:03:42.520Z,-1.038
2023-01-29T10:04:42.287Z,-1.148
2023-01-29T10:05:42.072Z,-1.241
2023-01-29T10:06:41.738Z,-1.383
2023-01-29T10:07:41.679Z,-1.396
2023-01-29T10:08:42.423Z,-1.511
2023-01-29T10:09:42.072Z,-1.500
2023-01-29T10:10:41.715Z,-1.500
2023-01-29T10:11:42.335Z,-1.372
2023-01-29T10:12:42.008Z,-1.604
2023-01-29T10:13:42.664Z,-1.575
2023-01-29T10:14:42.340Z,-1.548
2023-01-29T10:15:42.037Z,-1.661
2023-01-29T10:16:42.758Z,-1.634
2023-01-29T10:17:41.779Z,-1.639
2023-01-29T10:18:42.601Z,-1.562
2023-01-29T10:19:42.376Z,-1.487
2023-01-29T10:20:42.023Z,-1.618
2023-01-29T10:21:42.668Z,-1.492
2023-01-29T10:22:42.310Z,-1.508
2023-01-29T10:23:41.995Z,-1.375
2023-01-29T10:24:41.647Z,-1.148
2023-01-29T10:25:42.270Z,-1.070
2023-01-29T10:26:42.046Z,-1.062
2023-01-29T10:27:41.814Z,-1.183
2023-01-29T10:28:42.459Z,-1.073
2023-01-29T10:29:42.132Z,-1.217
2023-01-29T10:30:42.031Z,-1.020
2023-01-29T10:31:42.305Z,-0.993
2023-01-29T10:32:42.395Z,-0.803
2023-01-29T10:33:48.971Z,-0.945
2023-01-29T10:34:42.534Z,-0.924
2023-01-29T10:35:42.211Z,-0.892
2023-01-29T10:36:41.839Z,-1.057
2023-01-29T10:37:42.519Z,-0.950
2023-01-29T10:38:42.160Z,-0.819
2023-01-29T10:39:41.804Z,-1.006
2023-01-29T10:40:42.644Z,-0.924
2023-01-29T10:41:42.331Z,-1.140
2023-01-29T10:42:41.943Z,-0.910
2023-01-29T10:43:42.632Z,-0.830
2023-01-29T10:44:42.356Z,-0.710
2023-01-29T10:45:42.044Z,-0.798
2023-01-29T10:46:41.694Z,-0.758
2023-01-29T10:47:42.659Z,-0.616
2023-01-29T10:48:42.439Z,-0.475
2023-01-29T10:49:42.156Z,-0.176
2023-01-29T10:50:41.919Z,-0.037
2023-01-29T10:51:42.590Z,0.123
2023-01-29T10:52:42.272Z,-0.157
2023-01-29T10:53:41.875Z,-0.256
2023-01-29T10:54:42.557Z,-0.117
2023-01-29T10:55:42.188Z,0.102
2023-01-29T10:56:42.053Z,0.150
2023-01-29T10:57:41.744Z,0.198
2023-01-29T10:58:42.178Z,0.243
2023-01-29T10:59:41.883Z,0.302
2023-01-29T11:00:42.576Z,0.171
2023-01-29T11:01:42.544Z,-0.034
2023-01-29T11:02:42.521Z,-0.168
2023-01-29T11:03:46.018Z,-0.152
2023-01-29T11:04:41.842Z,-0.566
2023-01-29T11:05:42.522Z,-0.910
2023-01-29T11:06:42.183Z,-0.683
2023-01-29T11:07:41.798Z,-0.419
2023-01-29T11:08:42.475Z,-0.219
2023-01-29T11:09:42.204Z,-0.117
2023-01-29T11:10:41.988Z,-0.128
2023-01-29T11:11:42.608Z,-0.325
2023-01-29T11:12:42.312Z,-0.365
2023-01-29T11:13:42.077Z,-0.288
2023-01-29T11:14:41.885Z,-0.240
2023-01-29T11:15:42.561Z,-0.534
2023-01-29T11:16:42.304Z,-0.336
2023-01-29T11:17:42.787Z,-0.165
2023-01-29T11:18:42.480Z,-0.392
2023-01-29T11:19:42.175Z,-0.504
2023-01-29T11:20:41.870Z,-0.064
2023-01-29T11:21:42.547Z,0.014
2023-01-29T11:22:42.151Z,0.254
2023-01-29T11:23:41.810Z,-0.189
2023-01-29T11:24:42.578Z,0.203
2023-01-29T11:25:42.407Z,0.163
2023-01-29T11:26:42.488Z,0.604
2023-01-29T11:27:42.235Z,0.681
2023-01-29T11:28:41.958Z,0.449
2023-01-29T11:29:42.027Z,0.513
2023-01-29T11:30:41.856Z,0.599
2023-01-29T11:31:41.909Z,0.561
2023-01-29T11:32:41.707Z,0.676
2023-01-29T11:33:42.516Z,0.540
2023-01-29T11:34:42.344Z,0.054
2023-01-29T11:35:42.152Z,0.187
2023-01-29T11:36:41.961Z,0.209
2023-01-29T11:37:41.728Z,0.422
2023-01-29T11:38:42.660Z,0.607
2023-01-29T11:39:42.348Z,0.147
2023-01-29T11:40:42.103Z,0.326
2023-01-29T11:41:41.932Z,0.340
2023-01-29T11:42:42.627Z,0.105
2023-01-29T11:43:42.299Z,-0.136
2023-01-29T11:44:42.065Z,0.305
2023-01-29T11:45:41.740Z,0.008
2023-01-29T11:46:42.397Z,-0.261
2023-01-29T11:47:42.113Z,-0.376
2023-01-29T11:48:41.692Z,-0.699
2023-01-29T11:50:46.094Z,-0.592
2023-01-29T11:51:46.366Z,-0.785
2023-01-29T11:52:46.179Z,-0.480
2023-01-29T11:53:45.787Z,-0.515
2023-01-29T11:54:46.576Z,-0.336
2023-01-29T11:55:51.310Z,-0.096
2023-01-29T11:56:45.951Z,0.241
2023-01-29T11:57:46.560Z,0.454
2023-01-29T11:58:46.215Z,0.390
2023-01-29T11:59:45.919Z,-0.707
2023-01-29T12:00:46.539Z,-0.627
2023-01-29T12:01:46.216Z,-0.721
2023-01-29T12:02:45.949Z,-0.697
2023-01-29T12:03:45.824Z,-0.531
2023-01-29T12:04:45.716Z,-0.082
2023-01-29T12:05:46.686Z,0.000
2023-01-29T12:06:46.483Z,-0.061
2023-01-29T12:07:46.131Z,0.171
2023-01-29T12:08:45.783Z,0.361
2023-01-29T12:09:46.572Z,0.139
2023-01-29T12:10:46.330Z,0.385
2023-01-29T12:11:45.947Z,0.396
2023-01-29T12:12:46.748Z,0.545
2023-01-29T12:13:46.440Z,0.468
2023-01-29T12:14:46.148Z,0.444
2023-01-29T12:15:46.096Z,0.663
2023-01-29T12:16:45.988Z,-0.032
2023-01-29T12:17:46.705Z,0.038
2023-01-29T12:18:46.447Z,-0.213
2023-01-29T12:19:46.275Z,-0.264
2023-01-29T12:20:46.054Z,-0.237
2023-01-29T12:21:45.904Z,-0.245
2023-01-29T12:22:46.459Z,-0.232
2023-01-29T12:23:46.306Z,-0.195
2023-01-29T12:24:45.947Z,-0.387
2023-01-29T12:25:46.604Z,-0.379
2023-01-29T12:26:46.282Z,-0.355
2023-01-29T12:27:45.914Z,-0.320
2023-01-29T12:28:46.570Z,-0.419
2023-01-29T12:29:46.399Z,-0.422
2023-01-29T12:30:46.078Z,-0.395
2023-01-29T12:31:46.352Z,-0.389
2023-01-29T12:32:46.164Z,-0.144
2023-01-29T12:33:45.820Z,-0.024
2023-01-29T12:34:46.609Z,-0.171
2023-01-29T12:35:46.283Z,-0.224
2023-01-29T12:36:45.891Z,-0.240
2023-01-29T12:37:46.531Z,-0.112
2023-01-29T12:38:46.235Z,-0.064